METAR Data
IDs: Format: Raw Decoded Include TAF

Data at: 1538 UTC 21 Sep 2018

KEIK 211530Z AUTO 16007KT 10SM SCT036 17/04 A3040 RMK AO2 T01650042
KEIK 211512Z AUTO 14009KT 10SM SCT036 16/05 A3041 RMK AO2 T01590045
KEIK 211454Z AUTO 14009KT 10SM SCT038 15/06 A3041 RMK AO2 T01520055
KEIK 211430Z AUTO 14009KT 10SM BKN038 14/07 A3041 RMK AO2 T01440066
KEIK 211412Z AUTO 13008KT 10SM BKN036 14/07 A3041 RMK AO2 T01370070
KEIK 211354Z AUTO 13005KT 10SM OVC036 13/07 A3041 RMK AO2 T01290067
KEIK 211330Z AUTO 16005KT 10SM OVC036 13/06 A3040 RMK AO2 T01250062
KEIK 211312Z AUTO 15005KT 10SM OVC036 12/05 A3040 RMK AO2 T01200050
KEIK 211254Z AUTO 00000KT 10SM BKN038 12/06 A3040 RMK AO2 T01150056
KEIK 211230Z AUTO 17004KT 10SM BKN036 11/06 A3039 RMK AO2 T01140056
KEIK 211212Z AUTO 19003KT 10SM OVC032 12/07 A3038 RMK AO2 T01160065
KEIK 211154Z AUTO 15003KT 10SM BKN030 OVC041 12/07 A3037 RMK AO2 T01180068
KEIK 211130Z AUTO 00000KT 10SM BKN030 OVC041 12/08 A3037 RMK AO2 T01160079
KEIK 211112Z AUTO 00000KT 10SM SCT030 OVC041 11/08 A3037 RMK AO2 T01120083
KEIK 211054Z AUTO 00000KT 10SM SCT022 SCT030 BKN041 11/08 A3036 RMK AO2 T01110081
KEIK 211030Z AUTO 00000KT 10SM SCT022 SCT043 12/08 A3036 RMK AO2 T01150082
KEIK 211012Z AUTO 00000KT 10SM BKN043 12/08 A3035 RMK AO2 T01160083
KEIK 210954Z AUTO 00000KT 10SM SCT034 OVC043 12/09 A3035 RMK AO2 T01180087
KEIK 210930Z AUTO 09004KT 10SM BKN032 OVC046 12/09 A3034 RMK AO2 T01230090
KEIK 210912Z AUTO 08004KT 10SM BKN032 BKN039 BKN046 13/09 A3033 RMK AO2 T01250090
KEIK 210854Z AUTO 07005KT 10SM BKN032 OVC039 13/09 A3033 RMK AO2 T01310085
KEIK 210830Z AUTO 09003KT 10SM BKN038 OVC043 14/09 A3032 RMK AO2 T01360087
KEIK 210812Z AUTO 10004KT 10SM SCT036 BKN046 13/09 A3032 RMK AO2 T01310085
KEIK 210754Z AUTO 10004KT 10SM BKN044 14/08 A3032 RMK AO2 T01390083
KEIK 210730Z AUTO 11006KT 10SM OVC042 14/09 A3032 RMK AO2 T01400086
KEIK 210712Z AUTO 10004KT 10SM BKN044 13/09 A3032 RMK AO2 T01310086
KEIK 210654Z AUTO 13004KT 10SM SCT030 13/08 A3032 RMK AO2 T01300083
KEIK 210631Z AUTO 00000KT 10SM OVC030 13/09 A3032 RMK AO2 T01340085
KEIK 210612Z AUTO 00000KT 10SM BKN030 13/08 A3031 RMK AO2 T01310082
KEIK 210553Z AUTO 00000KT 10SM BKN030 13/08 A3030 RMK AO2 T01270081
KEIK 210535Z AUTO 00000KT 10SM SCT030 13/08 A3029 RMK AO2 T01320081
KEIK 210511Z AUTO 00000KT 10SM CLR 14/09 A3028 RMK AO2 T01360085
KEIK 210454Z AUTO 33003KT 10SM CLR 14/08 A3026 RMK AO2 T01440083
KEIK 210430Z AUTO 07004KT 10SM CLR 15/08 A3022 RMK AO2 T01520079
KEIK 210412Z AUTO 09007G16KT 10SM CLR 16/07 A3020 RMK AO2 T01550067
KEIK 210354Z AUTO 07010KT 10SM CLR 16/04 A3018 RMK AO2 T01620040
KEIK 210330Z AUTO 07011G19KT 10SM CLR 18/M03 A3016 RMK AO2 T01831034
KEIK 210312Z AUTO 05004KT 10SM CLR 18/M08 A3013 RMK AO2 T01791081
KEIK 210254Z AUTO 00000KT 10SM CLR 18/M09 A3011 RMK AO2 T01841089
KEIK 210230Z AUTO 31008KT 10SM CLR 19/M09 A3008 RMK AO2 T01911092
KEIK 210212Z AUTO 01005KT 10SM CLR 19/M09 A3007 RMK AO2 T01941090
KEIK 210154Z AUTO 29008KT 10SM CLR 22/M10 A3005 RMK AO2 T02201105
KEIK 210130Z AUTO 28009KT 10SM CLR 23/M11 A3003 RMK AO2 T02251106
KEIK 210112Z AUTO 29013G18KT 10SM CLR 24/M11 A3002 RMK AO2 T02361110
KEIK 210055Z AUTO 28013G19KT 10SM CLR 24/M10 A3001 RMK AO2 T02391103
KEIK 210031Z AUTO 29014G19KT 10SM CLR 26/M09 A2999 RMK AO2 T02571092
KEIK 210013Z AUTO 30009G19KT 10SM CLR 27/M09 A2998 RMK AO2 T02651092
KEIK 202354Z AUTO 30010G19KT 10SM CLR 27/M08 A2997 RMK AO2 T02701080
KEIK 202330Z AUTO 31011G24KT 10SM CLR 28/M08 A2996 RMK AO2 T02761077
KEIK 202312Z AUTO 30010G23KT 10SM CLR 28/M07 A2995 RMK AO2 T02801072
KEIK 202254Z AUTO 31013G22KT 10SM CLR 28/M07 A2994 RMK AO2 T02821071
KEIK 202230Z AUTO 31018G24KT 10SM CLR 29/M06 A2993 RMK AO2 T02891064
KEIK 202212Z AUTO 29011G22KT 10SM CLR 29/M06 A2992 RMK AO2 T02911064
KEIK 202154Z AUTO 31009G18KT 10SM CLR 29/M06 A2991 RMK AO2 T02851060
KEIK 202130Z AUTO 29010KT 10SM CLR 29/M04 A2991 RMK AO2 T02871041
KEIK 202112Z AUTO 30009G17KT 10SM CLR 29/M02 A2991 RMK AO2 T02851025
KEIK 202054Z AUTO 27007KT 10SM CLR 28/M02 A2991 RMK AO2 T02791025
KEIK 202030Z AUTO 00000KT 10SM CLR 28/M03 A2992 RMK AO2 T02801030
KEIK 202012Z AUTO 28008G15KT 10SM CLR 28/M03 A2992 RMK AO2 T02781030
KEIK 201954Z AUTO 27015G22KT 10SM CLR 28/M03 A2993 RMK AO2 T02761026
KEIK 201930Z AUTO 28015G22KT 10SM CLR 27/M01 A2994 RMK AO2 T02691013
KEIK 201912Z AUTO 31008G16KT 10SM SCT090 SCT120 25/01 A2995 RMK AO2 T02540010
KEIK 201854Z AUTO 29016G24KT 10SM SCT090 SCT120 23/02 A2995 RMK AO2 T02300017
KEIK 201830Z AUTO 00000KT 10SM CLR 27/02 A2994 RMK AO2 T02700020
KEIK 201812Z AUTO 00000KT 10SM CLR 25/06 A2994 RMK AO2 T02500059
KEIK 201754Z AUTO 16004KT 10SM CLR 24/09 A2995 RMK AO2 T02440089
KEIK 201730Z AUTO 00000KT 10SM CLR 23/12 A2997 RMK AO2 T02270121
KEIK 201712Z AUTO 00000KT 10SM CLR 22/14 A2997 RMK AO2 T02200137
KEIK 201654Z AUTO 00000KT 10SM CLR 21/14 A2997 RMK AO2 T02110136
KEIK 201630Z AUTO 00000KT 10SM CLR 20/14 A2998 RMK AO2 T01980139
KEIK 201612Z AUTO 00000KT 10SM CLR 19/14 A2998 RMK AO2 T01870140
KEIK 201554Z AUTO 00000KT 10SM CLR 18/14 A2998 RMK AO2 T01820140
KEIK 201530Z AUTO 00000KT 10SM SCT009 18/14 A2997 RMK AO2 T01770142
KEIK 201512Z AUTO 34003KT 7SM BKN007 17/14 A2997 RMK AO2 T01700142
KEIK 201454Z AUTO 29003KT 7SM OVC007 17/14 A2997 RMK AO2 T01660143
KEIK 201430Z AUTO 00000KT 7SM OVC007 16/14 A2997 RMK AO2 T01580140
KEIK 201412Z AUTO 00000KT 5SM BR OVC007 16/14 A2997 RMK AO2 T01560140
KEIK 201354Z AUTO 00000KT 5SM BR OVC007 16/14 A2997 RMK AO2 T01550141
KEIK 201330Z AUTO 35003KT 4SM BR OVC007 15/14 A2996 RMK AO2 T01520141
KEIK 201312Z AUTO 01005KT 5SM BR OVC005 15/14 A2995 RMK AO2 T01510142
KEIK 201254Z AUTO 34005KT 5SM BR BKN005 15/14 A2994 RMK AO2 T01500142
KEIK 201230Z AUTO 33005KT 7SM SCT005 15/14 A2994 RMK AO2 T01500140
KEIK 201212Z AUTO 01003KT 7SM SCT005 SCT010 15/14 A2992 RMK AO2 T01510140
KEIK 201154Z AUTO 31004KT 7SM SCT005 15/14 A2994 RMK AO2 T01540142
KEIK 201130Z AUTO 05004KT 10SM SCT100 16/14 A2992 RMK AO2 T01560141
KEIK 201112Z AUTO 02005KT 10SM SCT080 SCT100 16/14 A2992 RMK AO2 T01570140
KEIK 201054Z AUTO 08003KT 10SM SCT080 SCT100 16/14 A2992 RMK AO2 T01580139
KEIK 201030Z AUTO 00000KT 10SM CLR 15/14 A2992 RMK AO2 T01530138
KEIK 201012Z AUTO 02004KT 10SM CLR 16/14 A2992 RMK AO2 T01550140
KEIK 200954Z AUTO 34004KT 10SM CLR 16/14 A2992 RMK AO2 T01570140
KEIK 200930Z AUTO 00000KT 10SM CLR 16/14 A2992 RMK AO2 T01640139
KEIK 200912Z AUTO 17003KT 10SM SCT085 SCT110 17/14 A2993 RMK AO2 T01650140
KEIK 200854Z AUTO 15005KT 10SM BKN110 16/14 A2994 RMK AO2 T01640140
KEIK 200830Z AUTO 10006KT 10SM BKN100 16/14 A2992 RMK AO2 T01630138
KEIK 200812Z AUTO 06005KT 10SM OVC100 16/14 A2995 RMK AO2 T01610140
KEIK 200753Z AUTO 34004KT 10SM OVC100 16/14 A2997 RMK AO2 T01590140
KEIK 200735Z AUTO 36003KT 10SM OVC100 16/14 A2997 RMK AO2 T01590140
KEIK 200712Z AUTO 00000KT 10SM OVC100 17/14 A2997 RMK AO2 T01660138
KEIK 200653Z AUTO 13003KT 10SM OVC110 17/14 A2997 RMK AO2 T01660136
KEIK 200630Z AUTO 13005KT 10SM BKN110 17/14 A2997 RMK AO2 T01650143
KEIK 200612Z AUTO 00000KT 10SM BKN110 16/14 A2997 RMK AO2 T01600141
KEIK 200554Z AUTO 11003KT 10SM SCT100 BKN110 17/14 A2997 RMK AO2 T01650143
KEIK 200530Z AUTO 13003KT 10SM -DZ SCT090 SCT110 17/14 A2997 RMK AO2 T01650141
KEIK 200512Z AUTO 00000KT 10SM BKN110 16/14 A2998 RMK AO2 T01630137
KEIK 200454Z AUTO 16003KT 10SM OVC110 17/14 A2999 RMK AO2 T01650138
KEIK 200430Z AUTO 12003KT 10SM BKN110 16/14 A2999 RMK AO2 T01620137
KEIK 200412Z AUTO 26003KT 10SM SCT031 SCT042 SCT050 16/14 A3001 RMK AO2 T01600137
KEIK 200353Z AUTO 26006KT 10SM DZ SCT028 SCT033 SCT044 16/14 A3001 RMK AO2 T01610137